Time;durP1;ratioP1;P1;durP2;ratioP2;P2;SDS_P1;SDS_P2;PMS_P1;PMS_P2;Temp;Humidity;BMP_temperature;BMP_pressure;BME280_temperature;BME280_humidity;BME280_pressure;Samples;Min_cycle;Max_cycle;Signal;HPM_P1;HPM_P2
2021/08/20 00:02:13;;;;;;;31.07;25.47;;;;;;;15.85;78.34;101582.09;5082777;28;20233;-69
2021/08/20 00:04:40;;;;;;;30.07;25.20;;;;;;;15.91;78.04;101588.41;5083283;28;20558;-69
2021/08/20 00:07:06;;;;;;;31.67;25.07;;;;;;;15.72;78.81;101587.75;5083288;28;20267;-69
2021/08/20 00:09:32;;;;;;;33.97;26.93;;;;;;;15.72;78.64;101585.88;5083109;28;20258;-69
2021/08/20 00:11:59;;;;;;;33.10;26.43;;;;;;;15.79;78.65;101583.06;5083504;28;20259;-69
2021/08/20 00:14:25;;;;;;;32.53;25.60;;;;;;;15.63;79.10;101581.13;5084234;28;20239;-69
2021/08/20 00:16:53;;;;;;;35.63;27.27;;;;;;;15.52;79.75;101578.19;5081577;28;20237;-69
2021/08/20 00:19:19;;;;;;;29.90;26.07;;;;;;;15.26;80.70;101581.41;5087186;28;20232;-69
2021/08/20 00:21:46;;;;;;;36.73;28.00;;;;;;;15.28;80.72;101579.28;5083900;28;20282;-69
2021/08/20 00:24:14;;;;;;;34.67;28.97;;;;;;;15.39;80.30;101585.72;5083464;28;20282;-69
2021/08/20 00:26:41;;;;;;;38.97;30.17;;;;;;;15.61;79.31;101584.03;5085921;28;21215;-69
2021/08/20 00:29:07;;;;;;;39.20;30.07;;;;;;;15.57;79.11;101590.94;5083949;28;20262;-69
2021/08/20 00:31:33;;;;;;;34.40;28.80;;;;;;;15.74;78.23;101594.53;5084419;28;20221;-69
2021/08/20 00:34:01;;;;;;;36.57;30.00;;;;;;;15.73;78.17;101592.09;5081046;28;20266;-69
2021/08/20 00:36:28;;;;;;;39.37;30.17;;;;;;;15.76;77.91;101583.56;5085117;28;20213;-69
2021/08/20 00:38:54;;;;;;;35.37;30.70;;;;;;;15.35;79.43;101596.13;5083130;28;20761;-69
2021/08/20 00:41:20;;;;;;;41.97;32.23;;;;;;;15.21;80.20;101592.84;5082940;28;20691;-69
2021/08/20 00:43:48;;;;;;;42.50;31.80;;;;;;;14.98;81.07;101596.34;5082184;28;20251;-69
2021/08/20 00:46:14;;;;;;;43.20;34.20;;;;;;;15.18;79.97;101590.63;5083033;28;20216;-69
2021/08/20 00:48:41;;;;;;;41.53;33.77;;;;;;;15.07;80.67;101599.53;5083924;28;20263;-69
2021/08/20 00:51:15;;;;;;;50.50;35.33;;;;;;;14.84;81.34;101594.13;5080403;28;20252;-69
2021/08/20 00:53:42;;;;;;;45.47;34.00;;;;;;;14.92;81.14;101586.53;5083925;28;20294;-69
2021/08/20 00:56:08;;;;;;;49.23;35.30;;;;;;;15.21;79.69;101592.84;5082179;28;20237;-69
2021/08/20 00:58:35;;;;;;;52.57;35.20;;;;;;;15.29;79.20;101579.03;5082377;28;20220;-69
2021/08/20 01:01:03;;;;;;;48.20;35.73;;;;;;;15.20;79.80;101585.81;5084426;28;20233;-69
2021/08/20 01:03:30;;;;;;;49.40;35.67;;;;;;;15.48;78.39;101577.00;5080671;28;20213;-69
2021/08/20 01:05:57;;;;;;;51.00;35.07;;;;;;;15.67;77.61;101571.50;5079891;28;20258;-69
2021/08/20 01:08:25;;;;;;;47.97;35.77;;;;;;;15.56;78.12;101578.53;5081485;28;20260;-69
2021/08/20 01:10:52;;;;;;;48.00;34.07;;;;;;;15.64;78.00;101572.00;5080123;28;20213;-69
2021/08/20 01:13:18;;;;;;;43.27;33.80;;;;;;;15.47;78.42;101572.69;5081865;28;20220;-69
2021/08/20 01:15:46;;;;;;;41.40;33.70;;;;;;;15.46;78.39;101576.44;5081735;28;20291;-69
2021/08/20 01:18:13;;;;;;;42.00;31.60;;;;;;;15.31;79.20;101570.72;5080846;28;21261;-69
2021/08/20 01:20:40;;;;;;;46.67;34.37;;;;;;;15.11;79.94;101579.16;5078641;28;20581;-69
2021/08/20 01:23:08;;;;;;;39.90;31.47;;;;;;;15.38;79.04;101584.91;5081574;28;20233;-69
2021/08/20 01:25:35;;;;;;;39.23;30.40;;;;;;;15.39;78.85;101575.75;5082826;28;20217;-69
2021/08/20 01:28:06;;;;;;;42.40;31.83;;;;;;;15.45;78.56;101565.91;5080680;28;20218;-69
2021/08/20 01:30:33;;;;;;;42.37;31.00;;;;;;;15.36;78.81;101567.31;5081814;28;20212;-69
2021/08/20 01:32:59;;;;;;;41.00;32.17;;;;;;;15.30;79.11;101559.13;5080710;28;20221;-69
2021/08/20 01:35:26;;;;;;;38.93;31.53;;;;;;;15.32;79.03;101575.06;5084359;28;20214;-69
2021/08/20 01:37:52;;;;;;;37.57;29.20;;;;;;;15.55;77.84;101571.50;5081582;28;20221;-69
2021/08/20 01:40:19;;;;;;;36.63;29.60;;;;;;;15.36;78.60;101576.22;5082331;28;20233;-69
2021/08/20 01:42:46;;;;;;;41.07;31.20;;;;;;;15.40;78.52;101568.50;5080050;28;20213;-69
2021/08/20 01:45:13;;;;;;;37.50;29.97;;;;;;;15.36;78.50;101573.50;5081646;28;20716;-69
2021/08/20 01:47:39;;;;;;;37.50;28.40;;;;;;;15.19;79.00;101569.91;5078474;28;20206;-68
2021/08/20 01:50:07;;;;;;;39.97;29.83;;;;;;;15.23;79.38;101579.16;5081893;28;20744;-69
2021/08/20 01:52:33;;;;;;;39.27;29.13;;;;;;;15.38;78.69;101570.63;5079837;28;20214;-69
2021/08/20 01:55:00;;;;;;;36.93;30.30;;;;;;;15.22;79.00;101574.81;5080535;28;20232;-69
2021/08/20 01:57:26;;;;;;;35.07;29.13;;;;;;;15.40;78.72;101577.38;5082230;28;20671;-69
2021/08/20 01:59:54;;;;;;;41.33;29.00;;;;;;;15.68;77.59;101563.19;5081845;28;20275;-69
2021/08/20 02:02:21;;;;;;;33.97;28.23;;;;;;;15.46;78.08;101559.44;5084333;28;20218;-69
2021/08/20 02:04:47;;;;;;;37.97;29.27;;;;;;;15.27;78.75;101562.31;5079911;28;20579;-69
2021/08/20 02:07:13;;;;;;;35.57;27.93;;;;;;;15.37;78.38;101560.88;5080884;28;20859;-69
2021/08/20 02:09:40;;;;;;;41.87;28.80;;;;;;;15.51;77.97;101556.88;5084070;28;20675;-69
2021/08/20 02:12:07;;;;;;;32.17;27.37;;;;;;;15.44;78.42;101558.88;5080339;28;20262;-69
2021/08/20 02:14:33;;;;;;;36.67;27.73;;;;;;;15.34;78.92;101558.66;5081133;28;20287;-69
2021/08/20 02:17:01;;;;;;;34.47;28.07;;;;;;;15.43;78.44;101563.44;5082541;28;20716;-69
2021/08/20 02:19:27;;;;;;;29.17;25.57;;;;;;;15.67;77.45;101568.81;5080319;28;20214;-69
2021/08/20 02:21:53;;;;;;;35.30;27.63;;;;;;;15.84;76.65;101561.59;5079598;28;20304;-69
2021/08/20 02:24:20;;;;;;;36.03;29.50;;;;;;;15.76;77.09;101560.13;5085014;28;20796;-69
2021/08/20 02:26:46;;;;;;;31.50;27.37;;;;;;;15.80;76.86;101560.44;5082808;28;21283;-69
2021/08/20 02:29:13;;;;;;;33.20;28.53;;;;;;;15.55;77.53;101552.66;5083971;28;20240;-69
2021/08/20 02:31:39;;;;;;;34.83;28.13;;;;;;;15.48;78.11;101546.56;5081282;28;20263;-69
2021/08/20 02:34:07;;;;;;;43.13;29.97;;;;;;;15.23;79.13;101553.03;5085137;28;20217;-69
2021/08/20 02:36:33;;;;;;;35.27;29.07;;;;;;;15.19;79.36;101549.19;5083799;28;20213;-69
2021/08/20 02:38:59;;;;;;;36.30;28.33;;;;;;;15.21;79.37;101549.78;5083104;28;20222;-69
2021/08/20 02:41:26;;;;;;;32.50;27.50;;;;;;;14.88;80.33;101550.41;5084135;28;21112;-69
2021/08/20 02:43:52;;;;;;;32.37;27.83;;;;;;;14.93;80.51;101550.50;5085001;28;20275;-69
2021/08/20 02:46:19;;;;;;;34.33;27.80;;;;;;;14.73;81.09;101556.22;5085611;28;20267;-69
2021/08/20 02:48:45;;;;;;;34.43;28.47;;;;;;;14.93;80.31;101557.75;5087780;28;20221;-69
2021/08/20 02:51:13;;;;;;;39.93;28.97;;;;;;;15.14;79.68;101562.56;5086309;28;20247;-69
2021/08/20 02:53:41;;;;;;;37.07;29.73;;;;;;;15.19;79.30;101565.34;5085726;28;20225;-69
2021/08/20 02:56:07;;;;;;;37.73;28.13;;;;;;;15.15;79.89;101564.19;5087349;28;20553;-69
2021/08/20 02:58:34;;;;;;;40.10;29.57;;;;;;;15.22;79.42;101558.66;5083722;28;20609;-69
2021/08/20 03:01:00;;;;;;;38.20;28.67;;;;;;;15.29;79.23;101557.50;5086322;28;20244;-69
2021/08/20 03:03:26;;;;;;;35.43;28.43;;;;;;;15.27;79.42;101556.91;5083216;28;20823;-69
2021/08/20 03:05:53;;;;;;;36.90;28.63;;;;;;;15.24;79.51;101560.06;5083006;28;20213;-69
2021/08/20 03:08:21;;;;;;;35.93;29.63;;;;;;;15.44;78.87;101557.00;5083774;28;20233;-69
2021/08/20 03:10:47;;;;;;;37.33;29.30;;;;;;;15.12;80.27;101545.84;5080492;28;20213;-69
2021/08/20 03:13:14;;;;;;;40.97;30.97;;;;;;;15.00;80.85;101559.28;5082618;28;20262;-69
2021/08/20 03:15:40;;;;;;;39.43;29.10;;;;;;;15.15;80.47;101552.59;5083568;28;20299;-69
2021/08/20 03:18:06;;;;;;;38.73;28.40;;;;;;;15.17;79.97;101545.09;5085904;28;20736;-69
2021/08/20 03:20:33;;;;;;;42.20;28.90;;;;;;;15.26;80.15;101541.00;5081803;28;20241;-69
2021/08/20 03:23:00;;;;;;;40.20;30.63;;;;;;;15.25;79.45;101542.88;5082464;28;20233;-69
2021/08/20 03:25:27;;;;;;;41.23;30.93;;;;;;;15.28;79.65;101542.41;5084094;28;20221;-69
2021/08/20 03:27:54;;;;;;;36.63;29.23;;;;;;;15.12;80.10;101540.44;5083435;28;20221;-69
2021/08/20 03:30:20;;;;;;;39.53;30.43;;;;;;;15.04;81.24;101537.28;5082962;28;20220;-69
2021/08/20 03:32:46;;;;;;;47.17;32.20;;;;;;;14.96;81.39;101551.91;5083990;28;20566;-69
2021/08/20 03:35:14;;;;;;;41.73;29.73;;;;;;;15.22;80.26;101547.91;5082227;28;20271;-69
2021/08/20 03:37:41;;;;;;;43.70;32.23;;;;;;;15.26;79.88;101549.09;5082167;28;20206;-69
2021/08/20 03:40:08;;;;;;;42.93;30.87;;;;;;;15.32;79.81;101554.34;5083515;28;20229;-69
2021/08/20 03:42:36;;;;;;;45.13;31.70;;;;;;;15.24;80.27;101556.56;5085989;28;20213;-69
2021/08/20 03:45:03;;;;;;;44.77;33.17;;;;;;;15.12;80.67;101561.97;5083636;28;20213;-69
2021/08/20 03:47:29;;;;;;;40.83;31.80;;;;;;;15.26;81.12;101576.81;5083923;28;20216;-69
2021/08/20 03:49:56;;;;;;;42.67;32.47;;;;;;;15.48;80.02;101560.03;5082883;28;20731;-69
2021/08/20 03:52:22;;;;;;;47.40;32.77;;;;;;;15.76;79.01;101562.81;5084205;28;20209;-69
2021/08/20 03:54:49;;;;;;;46.00;30.73;;;;;;;15.75;78.86;101554.94;5084545;28;20240;-69
2021/08/20 03:57:15;;;;;;;46.50;33.90;;;;;;;15.85;78.85;101552.47;5084032;28;20672;-69
2021/08/20 03:59:43;;;;;;;47.87;34.30;;;;;;;15.66;79.33;101559.09;5086114;28;20578;-69
2021/08/20 04:02:09;;;;;;;50.10;35.30;;;;;;;15.97;78.55;101555.09;5081801;28;20237;-69
2021/08/20 04:04:36;;;;;;;50.07;33.70;;;;;;;16.04;78.11;101555.78;5083872;28;20263;-69
2021/08/20 04:07:03;;;;;;;53.03;34.87;;;;;;;16.30;77.19;101547.09;5081150;28;20201;-69
2021/08/20 04:09:29;;;;;;;44.43;33.63;;;;;;;16.27;77.06;101561.06;5083291;28;20289;-69
2021/08/20 04:11:55;;;;;;;57.87;36.17;;;;;;;16.04;77.80;101562.00;5081833;28;20240;-68
2021/08/20 04:14:22;;;;;;;55.77;36.67;;;;;;;15.72;79.08;101558.94;5083429;28;20225;-68
2021/08/20 04:16:49;;;;;;;52.67;34.80;;;;;;;15.49;80.36;101561.66;5083311;28;20244;-68
2021/08/20 04:19:16;;;;;;;59.37;38.80;;;;;;;15.36;80.85;101573.50;5081588;28;20217;-68
2021/08/20 04:21:43;;;;;;;54.30;35.50;;;;;;;15.38;81.39;101568.72;5082815;28;20650;-68
2021/08/20 04:24:12;;;;;;;53.10;35.00;;;;;;;15.26;81.73;101566.06;5080518;28;20217;-70
2021/08/20 04:26:39;;;;;;;57.73;38.87;;;;;;;15.39;81.30;101559.59;5081781;28;20214;-70
2021/08/20 04:29:05;;;;;;;58.53;37.77;;;;;;;15.52;81.13;101562.03;5082554;28;20767;-70
2021/08/20 04:31:32;;;;;;;71.95;48.80;;;;;;;15.54;81.42;101564.47;5088521;28;20962;-78
2021/08/20 04:34:00;;;;;;;60.20;38.87;;;;;;;15.40;81.72;101555.84;5088761;28;20248;-76
2021/08/20 04:36:26;;;;;;;64.03;40.43;;;;;;;15.54;81.38;101557.22;5084643;28;20271;-76
2021/08/20 04:38:53;;;;;;;61.43;39.60;;;;;;;15.59;81.05;101556.50;5082596;28;20290;-76
2021/08/20 04:41:19;;;;;;;73.33;40.90;;;;;;;15.82;79.99;101566.41;5082521;28;20237;-76
2021/08/20 04:43:46;;;;;;;61.63;39.30;;;;;;;15.85;80.01;101564.06;5080869;28;20732;-76
2021/08/20 04:46:12;;;;;;;69.10;39.53;;;;;;;15.78;80.38;101559.88;5082534;28;20209;-76
2021/08/20 04:48:39;;;;;;;62.47;39.70;;;;;;;15.83;79.88;101568.06;5081517;28;20757;-76
2021/08/20 04:51:06;;;;;;;62.47;39.50;;;;;;;15.61;80.78;101573.25;5083844;28;20213;-76
2021/08/20 04:53:33;;;;;;;67.60;41.73;;;;;;;15.58;81.19;101577.22;5081367;28;20228;-76
2021/08/20 04:55:59;;;;;;;66.37;41.00;;;;;;;15.63;81.20;101573.06;5081092;28;20665;-76
2021/08/20 04:58:26;;;;;;;63.00;39.43;;;;;;;15.57;81.64;101575.59;5083329;28;20217;-76
2021/08/20 05:00:53;;;;;;;61.87;39.53;;;;;;;15.80;80.92;101588.22;5098464;28;20237;-79
2021/08/20 05:03:20;;;;;;;57.60;39.10;;;;;;;15.88;81.15;101587.84;5094368;28;20216;-79
2021/08/20 05:05:47;;;;;;;62.30;41.10;;;;;;;15.98;80.79;101589.91;5093108;28;20210;-79
2021/08/20 05:08:15;;;;;;;56.83;37.93;;;;;;;16.13;80.64;101590.22;5101233;28;20225;-79
2021/08/20 05:10:41;;;;;;;55.80;38.87;;;;;;;15.80;81.84;101585.53;5095931;28;20220;-78
2021/08/20 05:13:08;;;;;;;58.23;42.70;;;;;;;15.75;82.73;101588.13;5097199;28;20789;-79
2021/08/20 05:15:35;;;;;;;52.57;37.07;;;;;;;16.03;82.09;101589.19;5095718;28;20236;-80
2021/08/20 05:18:02;;;;;;;58.70;41.60;;;;;;;16.18;81.35;101589.47;5097552;28;20772;-79
2021/08/20 05:20:28;;;;;;;57.77;39.70;;;;;;;16.23;81.62;101580.66;5093113;28;20205;-80
2021/08/20 05:22:56;;;;;;;62.40;41.23;;;;;;;16.27;81.71;101592.59;5091187;28;20220;-80
2021/08/20 05:25:25;;;;;;;57.53;39.73;;;;;;;16.58;81.39;101592.06;5088455;28;20204;-78
2021/08/20 05:27:52;;;;;;;59.37;42.40;;;;;;;16.29;82.05;101598.56;5084067;28;20220;-75
2021/08/20 05:30:19;;;;;;;68.10;43.90;;;;;;;16.22;82.49;101600.59;5083302;28;20228;-75
2021/08/20 05:32:46;;;;;;;58.60;41.80;;;;;;;16.18;82.32;101593.00;5079514;28;20213;-74
2021/08/20 05:35:14;;;;;;;61.97;43.60;;;;;;;16.18;82.72;101600.25;5080775;28;20213;-74
2021/08/20 05:37:41;;;;;;;56.70;40.90;;;;;;;16.18;82.33;101598.38;5079368;28;20275;-76
2021/08/20 05:40:08;;;;;;;63.70;43.37;;;;;;;15.93;83.42;101602.47;5078013;28;20226;-76
2021/08/20 05:42:36;;;;;;;65.53;43.60;;;;;;;15.86;83.79;101607.97;5078444;28;20246;-76
2021/08/20 05:45:02;;;;;;;68.57;44.87;;;;;;;16.12;83.01;101606.59;5079434;28;20671;-76
2021/08/20 05:47:29;;;;;;;66.77;45.03;;;;;;;16.29;82.43;101607.47;5078084;28;20672;-73
2021/08/20 05:49:55;;;;;;;68.97;44.20;;;;;;;16.51;81.63;101612.16;5079405;28;20280;-76
2021/08/20 05:52:22;;;;;;;79.80;48.67;;;;;;;16.27;82.65;101608.78;5079771;28;20648;-77
2021/08/20 05:54:48;;;;;;;70.47;46.60;;;;;;;16.16;82.89;101615.88;5080842;28;20290;-76
2021/08/20 05:57:14;;;;;;;71.53;46.77;;;;;;;16.32;82.53;101614.25;5080133;28;20214;-76
2021/08/20 05:59:42;;;;;;;64.23;45.30;;;;;;;16.24;82.80;101620.03;5081419;28;20663;-76
2021/08/20 06:02:08;;;;;;;73.67;47.30;;;;;;;16.52;82.18;101622.72;5079127;28;20290;-77
2021/08/20 06:04:36;;;;;;;72.00;45.83;;;;;;;16.22;82.92;101625.66;5080769;28;20224;-76
2021/08/20 06:07:02;;;;;;;73.63;46.27;;;;;;;16.24;83.32;101620.84;5079823;28;20227;-77
2021/08/20 06:09:28;;;;;;;71.23;45.13;;;;;;;16.18;83.39;101622.66;5084098;28;20232;-76
2021/08/20 06:11:55;;;;;;;70.50;45.00;;;;;;;16.37;83.58;101627.81;5084533;28;20707;-76
2021/08/20 06:14:22;;;;;;;74.67;44.57;;;;;;;16.47;82.76;101626.13;5082445;28;20240;-77
2021/08/20 06:16:54;;;;;;;75.27;45.53;;;;;;;16.21;83.88;101625.91;5083428;28;20348;-77
2021/08/20 06:19:20;;;;;;;63.00;42.83;;;;;;;16.41;83.53;101626.31;5084528;28;20223;-77
2021/08/20 06:21:47;;;;;;;59.80;40.20;;;;;;;16.62;82.70;101638.25;5078308;28;20280;-74
2021/08/20 06:24:13;;;;;;;56.03;39.47;;;;;;;17.02;82.21;101641.69;5084787;28;20218;-74
2021/08/20 06:26:40;;;;;;;61.93;39.60;;;;;;;17.09;80.81;101641.50;5082087;28;20218;-74
2021/08/20 06:29:06;;;;;;;65.80;42.03;;;;;;;17.29;80.79;101652.63;5082694;28;20334;-74
2021/08/20 06:31:32;;;;;;;62.90;41.10;;;;;;;17.15;81.09;101650.47;5083566;28;20271;-74
2021/08/20 06:34:00;;;;;;;56.23;37.30;;;;;;;17.34;80.96;101644.59;5083236;28;21163;-74
2021/08/20 06:36:27;;;;;;;56.63;38.43;;;;;;;17.67;80.02;101650.16;5083628;28;20215;-74
2021/08/20 06:38:53;;;;;;;52.47;37.33;;;;;;;17.68;80.28;101646.41;5084991;28;20236;-71
2021/08/20 06:41:19;;;;;;;58.20;37.77;;;;;;;17.71;80.03;101652.16;5082249;28;20318;-71
2021/08/20 06:43:46;;;;;;;49.97;34.80;;;;;;;17.33;81.67;101639.44;5084923;28;20214;-71
2021/08/20 06:46:12;;;;;;;52.60;34.50;;;;;;;17.41;81.58;101638.19;5082146;28;20268;-71
2021/08/20 06:48:39;;;;;;;50.07;34.43;;;;;;;17.27;81.98;101645.81;5085113;28;20632;-71
2021/08/20 06:51:06;;;;;;;50.80;35.23;;;;;;;17.26;82.18;101634.19;5081826;28;20212;-71
2021/08/20 06:53:34;;;;;;;49.17;35.50;;;;;;;17.37;81.93;101635.16;5083569;28;20309;-71
2021/08/20 06:56:00;;;;;;;54.70;36.77;;;;;;;17.56;81.56;101638.41;5084925;28;20223;-71
2021/08/20 06:58:27;;;;;;;52.97;35.27;;;;;;;17.59;81.30;101636.00;5083881;28;20242;-72
2021/08/20 07:00:53;;;;;;;56.60;37.97;;;;;;;17.67;81.09;101645.59;5083153;28;20618;-72
2021/08/20 07:03:19;;;;;;;54.90;35.93;;;;;;;17.85;80.39;101642.59;5082806;28;20217;-72
2021/08/20 07:05:46;;;;;;;55.87;37.33;;;;;;;17.68;80.77;101631.00;5084679;28;20264;-72
2021/08/20 07:08:13;;;;;;;59.90;38.27;;;;;;;17.71;81.14;101637.81;5082639;28;20231;-72
2021/08/20 07:10:40;;;;;;;55.63;36.80;;;;;;;17.74;80.87;101643.53;5082243;28;20221;-72
2021/08/20 07:13:07;;;;;;;57.73;37.83;;;;;;;17.65;80.65;101647.69;5083147;28;20267;-72
2021/08/20 07:15:34;;;;;;;56.00;36.10;;;;;;;17.84;80.23;101640.13;5084602;28;20225;-72
2021/08/20 07:18:00;;;;;;;51.10;34.77;;;;;;;17.77;80.66;101650.31;5081961;28;20825;-72
2021/08/20 07:20:27;;;;;;;60.77;35.93;;;;;;;17.89;81.36;101638.31;5082653;28;20270;-72
2021/08/20 07:22:53;;;;;;;55.27;36.57;;;;;;;18.30;79.67;101651.50;5080598;28;20236;-72
2021/08/20 07:25:21;;;;;;;53.63;33.20;;;;;;;18.41;79.51;101650.50;5082664;28;20226;-73
2021/08/20 07:27:48;;;;;;;45.93;33.83;;;;;;;18.04;80.73;101655.78;5085326;28;21180;-73
2021/08/20 07:30:14;;;;;;;50.50;34.50;;;;;;;17.91;80.96;101665.94;5083124;28;20265;-73
2021/08/20 07:32:41;;;;;;;47.40;35.23;;;;;;;18.15;80.80;101662.94;5082967;28;20270;-72
2021/08/20 07:35:07;;;;;;;42.30;31.93;;;;;;;18.28;79.82;101667.97;5083117;28;20307;-71
2021/08/20 07:37:34;;;;;;;40.60;30.67;;;;;;;18.36;80.36;101681.03;5080588;28;20217;-71
2021/08/20 07:40:01;;;;;;;44.37;33.10;;;;;;;18.39;79.96;101675.13;5081349;28;20236;-72
2021/08/20 07:42:29;;;;;;;41.20;30.57;;;;;;;18.12;81.10;101675.09;5081965;28;20250;-72
2021/08/20 07:44:55;;;;;;;45.70;30.70;;;;;;;18.03;81.10;101682.00;5081628;28;20289;-71
2021/08/20 07:47:21;;;;;;;45.87;34.03;;;;;;;18.07;81.25;101679.63;5081350;28;20213;-71
2021/08/20 07:49:48;;;;;;;46.73;32.50;;;;;;;18.02;82.42;101679.56;5081927;28;20273;-71
2021/08/20 07:52:14;;;;;;;49.07;34.17;;;;;;;18.04;81.83;101680.97;5080411;28;20213;-72
2021/08/20 07:54:41;;;;;;;48.33;33.90;;;;;;;18.03;82.13;101686.59;5083274;28;20234;-74
2021/08/20 07:57:07;;;;;;;43.83;31.00;;;;;;;18.04;81.94;101689.06;5081838;28;20653;-74
2021/08/20 07:59:35;;;;;;;44.13;32.57;;;;;;;18.04;82.20;101683.66;5083046;28;20249;-73
2021/08/20 08:02:01;;;;;;;46.23;32.90;;;;;;;17.94;82.14;101686.25;5081666;28;20345;-73
2021/08/20 08:04:28;;;;;;;44.03;32.27;;;;;;;17.91;82.38;101689.41;5081674;28;20564;-73
2021/08/20 08:06:54;;;;;;;45.57;32.20;;;;;;;18.27;81.82;101681.75;5081751;28;20218;-74
2021/08/20 08:09:20;;;;;;;47.00;32.97;;;;;;;18.26;81.00;101686.34;5081866;28;20245;-73
2021/08/20 08:11:47;;;;;;;43.80;33.30;;;;;;;18.38;81.04;101681.59;5084067;28;21603;-74
2021/08/20 08:14:13;;;;;;;45.00;32.40;;;;;;;18.44;80.65;101688.72;5084315;28;20234;-73
2021/08/20 08:16:41;;;;;;;41.50;30.30;;;;;;;18.89;79.84;101690.25;5081415;28;20372;-73
2021/08/20 08:19:08;;;;;;;40.43;30.50;;;;;;;18.78;79.77;101688.53;5083426;28;20246;-75
2021/08/20 08:21:35;;;;;;;38.73;30.53;;;;;;;19.13;79.41;101689.91;5083330;28;20236;-75
2021/08/20 08:24:01;;;;;;;35.50;28.27;;;;;;;19.43;77.84;101695.53;5083668;28;20226;-75
2021/08/20 08:26:28;;;;;;;31.60;26.80;;;;;;;19.89;77.16;101691.22;5083103;28;20578;-77
2021/08/20 08:28:56;;;;;;;35.90;27.57;;;;;;;19.83;77.11;101681.44;5082990;28;20298;-77
2021/08/20 08:31:23;;;;;;;33.33;26.37;;;;;;;19.75;76.84;101689.25;5083985;28;20228;-78
2021/08/20 08:33:51;;;;;;;32.40;27.30;;;;;;;20.07;76.67;101687.22;5082442;28;20244;-78
2021/08/20 08:36:18;;;;;;;29.50;25.00;;;;;;;20.27;75.56;101697.34;5081635;28;20718;-76
2021/08/20 08:38:44;;;;;;;29.43;24.20;;;;;;;19.92;76.18;101689.88;5083708;28;20643;-78
2021/08/20 08:41:11;;;;;;;25.90;22.97;;;;;;;19.84;76.27;101693.13;5082458;28;20209;-77
2021/08/20 08:43:37;;;;;;;26.80;23.70;;;;;;;19.82;77.13;101697.97;5081818;28;20242;-76
2021/08/20 08:46:08;;;;;;;24.83;21.93;;;;;;;20.10;76.35;101696.75;5080232;28;20220;-77
2021/08/20 08:48:38;;;;;;;24.57;21.93;;;;;;;20.30;73.80;101702.22;5081488;28;20742;-77
2021/08/20 08:51:08;;;;;;;24.80;21.37;;;;;;;19.89;76.18;101690.41;5083761;28;20657;-78
2021/08/20 08:53:34;;;;;;;22.47;19.93;;;;;;;20.13;74.43;101696.22;5083224;28;20706;-78
2021/08/20 08:56:01;;;;;;;22.93;19.37;;;;;;;19.74;75.05;101702.00;5082673;28;20268;-77
2021/08/20 08:58:27;;;;;;;23.67;19.80;;;;;;;19.73;76.13;101707.69;5080944;28;20201;-77
2021/08/20 09:00:53;;;;;;;24.10;21.50;;;;;;;19.85;76.32;101705.59;5083552;28;20221;-76
2021/08/20 09:03:24;;;;;;;22.33;19.47;;;;;;;19.77;75.34;101706.91;5081349;28;20244;-78
2021/08/20 09:05:50;;;;;;;25.13;22.33;;;;;;;19.82;76.18;101706.09;5085032;28;20261;-77
2021/08/20 09:08:21;;;;;;;25.13;20.80;;;;;;;20.29;75.42;101706.84;5085506;28;20233;-77
2021/08/20 09:10:50;;;;;;;21.80;19.57;;;;;;;20.89;73.56;101704.56;5084688;28;20597;-78
2021/08/20 09:13:17;;;;;;;20.83;18.73;;;;;;;20.80;72.47;101708.88;5085440;28;20330;-78
2021/08/20 09:15:45;;;;;;;20.80;18.60;;;;;;;20.85;71.32;101708.91;5083667;28;20237;-78
2021/08/20 09:18:20;;;;;;;21.90;18.60;;;;;;;20.35;73.39;101706.88;5083839;28;20216;-78
2021/08/20 09:20:46;;;;;;;18.83;16.93;;;;;;;19.99;73.54;101710.25;5082299;28;20212;-78
2021/08/20 09:23:20;;;;;;;19.23;17.13;;;;;;;20.11;73.54;101704.63;5080905;28;20244;-78
2021/08/20 09:25:48;;;;;;;23.37;18.23;;;;;;;20.51;73.04;101712.09;5084477;28;20265;-78
2021/08/20 09:28:19;;;;;;;22.07;17.07;;;;;;;20.57;72.65;101708.28;5083649;28;20209;-78
2021/08/20 09:31:02;;;;;;;18.47;16.47;;;;;;;20.85;71.57;101708.91;5080978;28;20205;-78
2021/08/20 09:33:30;;;;;;;19.00;17.10;;;;;;;20.86;71.33;101705.91;5084089;28;20444;-78
2021/08/20 09:35:57;;;;;;;20.07;17.93;;;;;;;20.95;70.26;101698.03;5082233;28;20804;-78
2021/08/20 09:38:26;;;;;;;18.53;16.63;;;;;;;20.92;71.41;101701.28;5084447;28;20261;-78
2021/08/20 09:40:56;;;;;;;20.40;16.43;;;;;;;20.72;70.78;101712.97;5085466;28;20261;-78
2021/08/20 09:43:26;;;;;;;18.67;16.40;;;;;;;20.74;71.31;101713.50;5089372;28;20217;-79
2021/08/20 09:46:02;;;;;;;19.60;16.23;;;;;;;21.41;69.50;101714.34;5089655;28;20217;-79
2021/08/20 09:48:41;;;;;;;17.10;15.30;;;;;;;20.98;69.97;101719.25;5089603;28;20216;-79
2021/08/20 09:51:07;;;;;;;17.00;15.20;;;;;;;21.40;69.42;101715.44;5088501;28;20213;-79
2021/08/20 09:53:35;;;;;;;17.57;13.87;;;;;;;22.06;67.40;101723.44;5091495;28;20232;-79
2021/08/20 09:56:02;;;;;;;15.40;13.90;;;;;;;21.80;67.92;101727.31;5088138;28;20247;-79
2021/08/20 09:58:31;;;;;;;17.37;15.63;;;;;;;21.11;70.34;101728.75;5091042;28;20220;-79
2021/08/20 10:00:58;;;;;;;20.77;16.90;;;;;;;21.72;69.02;101729.53;5090369;28;20230;-79
2021/08/20 10:03:24;;;;;;;19.23;17.27;;;;;;;21.46;69.63;101733.38;5091597;28;20237;-79
2021/08/20 10:05:52;;;;;;;17.93;16.10;;;;;;;22.06;66.49;101733.53;5090855;28;20213;-79
2021/08/20 10:08:19;;;;;;;16.30;14.60;;;;;;;22.26;65.81;101737.00;5090847;28;20679;-79
2021/08/20 10:10:47;;;;;;;16.53;15.03;;;;;;;21.81;68.12;101734.38;5086364;28;20221;-80
2021/08/20 10:13:15;;;;;;;17.30;15.60;;;;;;;21.76;67.56;101740.66;5089338;28;20742;-80
2021/08/20 10:15:42;;;;;;;18.27;16.10;;;;;;;21.87;65.55;101742.28;5088977;28;20249;-80
2021/08/20 10:18:09;;;;;;;17.07;15.47;;;;;;;22.68;64.56;101732.94;5091150;28;20205;-80
2021/08/20 10:20:36;;;;;;;24.33;16.33;;;;;;;22.65;64.30;101743.59;5088320;28;20295;-79
2021/08/20 10:23:02;;;;;;;16.50;15.00;;;;;;;23.01;62.62;101742.28;5086594;28;20336;-78
2021/08/20 10:25:30;;;;;;;16.50;15.00;;;;;;;23.19;62.11;101738.84;5087942;28;20235;-81
2021/08/20 10:27:58;;;;;;;15.53;13.47;;;;;;;23.47;62.47;101737.22;5087024;28;20225;-80
2021/08/20 10:30:24;;;;;;;14.17;12.87;;;;;;;22.38;63.72;101742.09;5087037;28;20220;-80
2021/08/20 10:33:00;;;;;;;16.23;14.73;;;;;;;22.45;63.71;101731.69;5091494;28;20294;-80
2021/08/20 10:35:49;;;;;;;17.70;15.40;;;;;;;23.03;63.13;101736.53;5089152;28;20238;-80
2021/08/20 10:38:27;;;;;;;15.87;13.63;;;;;;;22.81;63.28;101742.38;5075633;28;20230;-80
2021/08/20 10:41:11;;;;;;;15.37;13.57;;;;;;;22.76;61.39;101737.81;5082500;28;20217;-80
2021/08/20 10:43:50;;;;;;;16.30;14.80;;;;;;;22.41;62.34;101740.72;5087519;28;20241;-78
2021/08/20 10:47:09;;;;;;;17.33;15.77;;;;;;;21.53;66.61;101755.66;5088922;28;20628;-79
2021/08/20 10:49:43;;;;;;;16.40;14.70;;;;;;;21.63;66.15;101743.97;5095735;28;20220;-80
2021/08/20 10:52:23;;;;;;;17.57;15.77;;;;;;;21.26;67.68;101749.72;5094293;28;20623;-79
2021/08/20 10:55:13;;;;;;;19.40;17.50;;;;;;;20.93;68.64;101756.44;5091849;28;20245;-79
2021/08/20 10:58:13;;;;;;;18.70;16.80;;;;;;;21.05;69.54;101754.28;5089079;28;20208;-79
2021/08/20 11:00:42;;;;;;;19.53;17.63;;;;;;;21.05;69.67;101752.38;5090288;28;20227;-80
2021/08/20 11:03:10;;;;;;;19.70;17.17;;;;;;;21.20;68.81;101756.19;5088877;28;20334;-80
2021/08/20 11:05:39;;;;;;;18.67;16.77;;;;;;;21.21;69.18;101758.63;5091425;28;20217;-80
2021/08/20 11:08:37;;;;;;;18.50;16.67;;;;;;;21.27;68.96;101759.50;5088584;28;20494;-80
2021/08/20 11:11:04;;;;;;;18.10;16.33;;;;;;;21.35;68.67;101758.94;5090692;28;20212;-79
2021/08/20 11:13:31;;;;;;;19.53;16.83;;;;;;;21.41;68.19;101761.38;5085529;28;20216;-79